Flight Track Log - Related Links

Times and Time Zones

All times are in EDT time to prevent confusion due to time zone crossing. See the UAL4150 flight status page for this flight to view local times or setup timezone preferences in your user account.

Time Position Orientation Groundspeed Altitude Reporting Facility
EDT Latitude Longitude Course Direction KTS MPH feet Rate Location/Type
Sat 11:02:56 AM 33.6539 -84.3633 234° Southwest 454 522 2,600  Level Atlanta Center
Sat 11:03:56 AM 33.6875 -84.2883 62° Northeast 368 423 4,900 2,500 Climbing Atlanta Center
Sat 11:04:56 AM 33.7606 -84.2811 North 247 284 7,600 2,600 Climbing Atlanta Center
Sat 11:05:00 AM 33.8001 -84.4594 270° West  Level FlightAware Approximate
Sat 11:05:56 AM 33.8147 -84.3489 314° West 304 350 10,100  Level Atlanta Center
Sat 11:06:00 AM 33.7915 -84.5837 239° Southwest  Level FlightAware Approximate
Sat 11:06:56 AM 33.8103 -84.4589 267° West 282 325 11,500  Level Atlanta Center
Sat 11:07:00 AM 33.7299 -84.6870 234° Southwest  Level FlightAware Approximate
Sat 11:07:56 AM 33.8036 -84.5789 266° West 345 397 13,400  Level Atlanta Center
Sat 11:08:00 AM 33.6670 -84.7891 234° Southwest  Level FlightAware Approximate
Sat 11:08:56 AM 33.7572 -84.6658 237° Southwest 351 404 15,000  Level Atlanta Center
Sat 11:09:56 AM 33.6942 -84.7603 231° Southwest 348 400 16,600 1,400 Climbing Atlanta Center
Sat 11:10:56 AM 33.6369 -84.8722 238° Southwest 373 429 17,800 1,500 Climbing Atlanta Center
Sat 11:11:56 AM 33.5964 -84.9864 247° West 378 435 19,600 1,750 Climbing Atlanta Center
Sat 11:12:56 AM 33.5558 -85.1033 247° West 384 442 21,300 1,650 Climbing Atlanta Center
Sat 11:13:56 AM 33.5131 -85.2272 248° West 375 432 22,900 1,600 Climbing Atlanta Center
Sat 11:14:56 AM 33.4931 -85.3492 259° West 369 425 24,500 1,900 Climbing Atlanta Center
Sat 11:15:56 AM 33.4728 -85.4683 259° West 369 425 26,700 4,750 Climbing Atlanta Center
Sat 11:16:56 AM 33.4528 -85.5800 258° West 364 419 34,000 1,600 Climbing Atlanta Center
Sat 11:17:56 AM 33.4178 -85.6939 250° West 364 419 29,900 -1,500 Descending Atlanta Center
Sat 11:18:56 AM 33.3936 -85.7806 252° West 358 412 31,000 1,350 Climbing Atlanta Center
Sat 11:19:56 AM 33.3564 -85.9017 250° West 352 405 32,600 1,500 Climbing Atlanta Center
Sat 11:20:56 AM 33.3256 -86.0078 251° West 352 405 34,000 700 Climbing Atlanta Center
Sat 11:21:56 AM 33.2903 -86.1214 250° West 352 405 34,000  Level Atlanta Center
Sat 11:22:56 AM 33.2569 -86.2472 252° West 380 437 34,000  Level Atlanta Center
Sat 11:23:56 AM 33.2167 -86.3853 251° West 408 470 34,000  Level Atlanta Center
Sat 11:24:56 AM 33.1764 -86.5231 251° West 433 498 34,000  Level Atlanta Center
Sat 11:25:56 AM 33.1361 -86.6608 251° West 444 511 34,000  Level Atlanta Center
Sat 11:26:56 AM 33.0953 -86.8011 251° West 449 517 34,000  Level Atlanta Center
Sat 11:27:56 AM 33.0525 -86.9433 250° West 456 525 34,000  Level Atlanta Center
Sat 11:28:56 AM 33.0117 -87.0808 251° West 456 525 34,000  Level Atlanta Center
Sat 11:29:56 AM 32.9703 -87.2253 251° West 462 532 34,000  Level Atlanta Center
Sat 11:30:56 AM 32.9311 -87.3650 252° West 455 524 34,000  Level Atlanta Center
Sat 11:31:56 AM 32.8856 -87.5067 249° West 462 532 34,000  Level Atlanta Center
Sat 11:33:07 AM 32.8289 -87.6847 249° West 457 526 34,000  Level Memphis Center
Sat 11:34:07 AM 32.7861 -87.8269 250° West 450 518 34,000  Level Memphis Center
Sat 11:35:07 AM 32.7492 -87.9664 253° West 450 518 34,000  Level Memphis Center
Sat 11:36:07 AM 32.7036 -88.1058 249° West 450 518 34,000  Level Memphis Center
Sat 11:37:07 AM 32.6603 -88.2475 250° West 450 518 34,000  Level Memphis Center
Sat 11:38:07 AM 32.6208 -88.3842 251° West 450 518 34,000  Level Memphis Center
Sat 11:39:07 AM 32.5747 -88.5231 249° West 450 518 34,000  Level Memphis Center
Sat 11:40:07 AM 32.5331 -88.6594 250° West 450 518 34,000  Level Memphis Center
Sat 11:41:07 AM 32.4889 -88.7958 249° West 450 518 34,000  Level Memphis Center
Sat 11:42:07 AM 32.4447 -88.9394 250° West 450 518 34,000  Level Memphis Center
Sat 11:43:07 AM 32.4022 -89.0753 250° West 455 524 34,000  Level Memphis Center
Sat 11:44:07 AM 32.3556 -89.2161 249° West 449 517 34,000  Level Memphis Center
Sat 11:45:07 AM 32.3108 -89.3544 249° West 449 517 34,000  Level Memphis Center
Sat 11:46:07 AM 32.2658 -89.4925 249° West 449 517 34,000  Level Memphis Center
Sat 11:47:07 AM 32.2231 -89.6306 250° West 449 517 34,000  Level Memphis Center
Sat 11:48:07 AM 32.1758 -89.7708 248° West 449 517 34,000  Level Memphis Center
Sat 11:49:07 AM 32.1303 -89.9133 249° West 449 517 34,000  Level Memphis Center
Sat 11:50:07 AM 32.0850 -90.0533 249° West 449 517 34,000  Level Memphis Center
Sat 11:50:48 AM 32.0631 -90.1256 250° West 455 524 34,000  Level Houston Center
Sat 11:51:50 AM 32.0175 -90.2644 249° West 455 524 34,000  Level Houston Center
Sat 11:52:52 AM 31.9725 -90.4017 249° West 452 520 34,000  Level Houston Center
Sat 11:53:54 AM 31.9169 -90.5683 249° West 454 522 34,000 -48 Level Houston Center
Sat 11:54:56 AM 31.8711 -90.7072 249° West 456 525 33,900  Descending Houston Center
Sat 11:55:58 AM 31.8275 -90.8394 249° West 444 511 34,000 48 Climbing Houston Center
Sat 11:57:00 AM 31.7817 -90.9758 248° West 441 507 34,000  Level Houston Center
Sat 11:58:02 AM 31.7272 -91.1358 248° West 443 510 34,000  Level Houston Center
Sat 11:59:04 AM 31.6806 -91.2700 248° West 442 509 34,000  Level Houston Center
Sat 12:00:06 PM 31.6339 -91.4047 248° West 444 511 34,000  Level Houston Center
Sat 12:01:08 PM 31.5886 -91.5394 248° West 444 511 34,000  Level Houston Center
Sat 12:02:11 PM 31.5425 -91.6733 248° West 443 510 34,000  Level Houston Center
Sat 12:03:13 PM 31.4964 -91.8081 248° West 445 512 34,000  Level Houston Center
Sat 12:04:15 PM 31.4414 -91.9697 248° West 445 512 34,000  Level Houston Center
Sat 12:05:17 PM 31.3997 -92.0872 247° West 445 512 34,000  Level Houston Center
Sat 12:06:19 PM 31.3536 -92.2208 248° West 444 511 34,000  Level Houston Center
Sat 12:07:21 PM 31.2969 -92.3806 247° West 444 511 34,000  Level Houston Center
Sat 12:08:23 PM 31.2478 -92.5172 247° West 450 518 34,000  Level Houston Center
Sat 12:09:25 PM 31.1806 -92.6433 238° Southwest 457 526 34,000  Level Houston Center
Sat 12:10:27 PM 31.1100 -92.7644 236° Southwest 455 524 34,000  Level Houston Center
Sat 12:11:29 PM 31.0414 -92.8864 237° Southwest 454 522 34,000  Level Houston Center
Sat 12:12:31 PM 30.9581 -93.0347 237° Southwest 455 524 34,000  Level Houston Center
Sat 12:13:33 PM 30.8889 -93.1569 237° Southwest 454 522 34,000 -480 Level Houston Center
Sat 12:14:36 PM 30.8183 -93.2797 236° Southwest 456 525 33,000 -1,584 Descending Houston Center
Sat 12:15:38 PM 30.7478 -93.4047 237° Southwest 463 533 30,700 -2,371 Descending Houston Center
Sat 12:16:40 PM 30.6792 -93.5267 237° Southwest 458 527 28,100 -2,613 Descending Houston Center
Sat 12:17:42 PM 30.5953 -93.6747 237° Southwest 464 534 25,300 -2,419 Descending Houston Center
Sat 12:18:44 PM 30.5261 -93.7936 236° Southwest 454 522 23,100 -2,274 Descending Houston Center
Sat 12:19:46 PM 30.4592 -93.9111 237° Southwest 445 512 20,600 -2,371 Descending Houston Center
Sat 12:20:48 PM 30.3942 -94.0225 236° Southwest 425 489 18,200 -2,274 Descending Houston Center
Sat 12:21:50 PM 30.3333 -94.1275 236° Southwest 397 457 15,900 -2,468 Descending Houston Center
Sat 12:22:52 PM 30.2628 -94.2503 236° Southwest 384 442 13,100 -1,935 Descending Houston Center
Sat 12:23:54 PM 30.2069 -94.3464 236° Southwest 362 417 11,900 -1,016 Descending Houston Center
Sat 12:24:56 PM 30.1839 -94.4458 255° West 318 366 11,000 -1,104 Descending Houston Center
Sat 12:25:59 PM 30.1672 -94.5369 258° West 301 346 9,600 -1,392 Descending Houston Center
Sat 12:27:01 PM 30.1525 -94.6256 259° West 285 328 8,100 -1,548 Descending Houston Center
Sat 12:28:03 PM 30.1347 -94.7317 259° West 283 326 6,400 -1,016 Descending Houston Center
Sat 12:29:05 PM 30.1206 -94.8169 259° West 276 318 6,000 -194 Descending Houston Center
Sat 12:30:07 PM 30.1061 -94.9006 259° West 268 308 6,000  Level Houston Center
Sat 12:31:09 PM 30.1053 -94.9894 269° West 275 316 6,000  Level Houston Center
Sat 12:32:11 PM 30.1064 -95.0781 271° West 277 319 6,000  Level Houston Center
Sat 12:33:13 PM 30.1061 -95.1797 270° West 269 310 6,000  Level Houston Center
Sat 12:34:15 PM 30.1067 -95.2586 270° West 252 290 6,000 -99 Level Houston Center
Sat 12:35:14 PM 30.1058 -95.3358 269° West 240 276 5,800 -871 Descending Houston Center
Sat 12:36:19 PM 30.1050 -95.4067 269° West 233 268 4,200 -1,426 Descending Houston Center
Sat 12:37:16 PM 30.0833 -95.4808 251° West 199 229 2,900 -1,368 Descending Houston Center

Login

Don't have an account? Register now (free) for customized features, flight alerts, and more!